Time;durP1;ratioP1;P1;durP2;ratioP2;P2;SDS_P1;SDS_P2;PMS_P1;PMS_P2;Temp;Humidity;BMP_temperature;BMP_pressure;BME280_temperature;BME280_humidity;BME280_pressure;Samples;Min_cycle;Max_cycle;Signal;HPM_P1;HPM_P2
2021/07/06 00:01:35;;;;;;;2.53;2.33;;;;;;;15.98;100.00;100373.06;5069923;28;20207;-73
2021/07/06 00:04:02;;;;;;;2.73;2.17;;;;;;;15.98;100.00;100365.16;5066272;28;20229;-73
2021/07/06 00:06:28;;;;;;;2.90;2.30;;;;;;;15.94;100.00;100373.31;5074766;28;20305;-72
2021/07/06 00:08:56;;;;;;;2.50;2.27;;;;;;;15.95;100.00;100370.56;5068658;28;20233;-73
2021/07/06 00:11:22;;;;;;;2.40;2.07;;;;;;;15.90;100.00;100368.22;5056063;28;20221;-71
2021/07/06 00:13:49;;;;;;;2.50;2.30;;;;;;;15.90;100.00;100370.00;5053545;28;20574;-71
2021/07/06 00:16:15;;;;;;;5.33;2.30;;;;;;;15.82;100.00;100366.91;5054598;28;20275;-73
2021/07/06 00:18:42;;;;;;;3.40;2.40;;;;;;;15.82;100.00;100354.59;5049868;28;20227;-72
2021/07/06 00:21:09;;;;;;;3.07;2.30;;;;;;;15.75;100.00;100363.75;5054825;28;20273;-71
2021/07/06 00:23:35;;;;;;;2.53;2.33;;;;;;;15.72;100.00;100355.97;5054004;28;20224;-74
2021/07/06 00:26:03;;;;;;;2.63;2.33;;;;;;;15.70;100.00;100355.22;5052195;28;20576;-74
2021/07/06 00:28:29;;;;;;;2.53;2.30;;;;;;;15.69;100.00;100354.38;5053126;28;20710;-74
2021/07/06 00:30:56;;;;;;;2.80;2.50;;;;;;;15.64;100.00;100361.63;5051266;28;20241;-74
2021/07/06 00:33:22;;;;;;;2.70;2.20;;;;;;;15.62;100.00;100357.38;5051477;28;20237;-71
2021/07/06 00:35:49;;;;;;;2.50;2.30;;;;;;;15.59;100.00;100355.75;5051840;28;20227;-72
2021/07/06 00:38:15;;;;;;;2.93;2.57;;;;;;;15.57;100.00;100364.66;5056077;28;20208;-72
2021/07/06 00:40:42;;;;;;;2.70;2.40;;;;;;;15.56;100.00;100357.69;5050001;28;20206;-74
2021/07/06 00:43:09;;;;;;;3.50;2.37;;;;;;;15.52;100.00;100351.75;5052701;28;20209;-74
2021/07/06 00:45:36;;;;;;;2.63;2.30;;;;;;;15.46;100.00;100354.69;5052455;28;20583;-73
2021/07/06 00:48:02;;;;;;;3.13;2.30;;;;;;;15.44;100.00;100348.66;5054090;28;20210;-74
2021/07/06 00:50:30;;;;;;;2.83;2.50;;;;;;;15.35;100.00;100344.72;5054001;28;20250;-74
2021/07/06 00:52:57;;;;;;;2.93;2.67;;;;;;;15.37;100.00;100353.38;5055430;28;20199;-74
2021/07/06 00:55:24;;;;;;;2.93;2.67;;;;;;;15.38;100.00;100356.88;5054646;28;20210;-74
2021/07/06 00:57:50;;;;;;;4.87;2.50;;;;;;;15.30;100.00;100360.72;5052370;28;20199;-74
2021/07/06 01:00:20;;;;;;;3.50;2.37;;;;;;;15.32;100.00;100356.25;5049661;28;20576;-73
2021/07/06 01:02:49;;;;;;;2.63;2.43;;;;;;;15.30;100.00;100358.09;5049917;28;20587;-72
2021/07/06 01:05:18;;;;;;;4.30;2.50;;;;;;;15.29;100.00;100356.38;5047504;28;20703;-73
2021/07/06 01:07:44;;;;;;;2.70;2.50;;;;;;;15.34;100.00;100361.41;5050613;28;20204;-72
2021/07/06 01:10:14;;;;;;;3.17;2.87;;;;;;;15.31;100.00;100364.19;5050414;28;20668;-74
2021/07/06 01:12:42;;;;;;;5.30;3.10;;;;;;;15.30;100.00;100365.97;5051842;28;20215;-73
2021/07/06 01:15:11;;;;;;;3.60;2.60;;;;;;;15.28;100.00;100374.84;5059332;28;20232;-73
2021/07/06 01:17:40;;;;;;;8.13;3.03;;;;;;;15.26;100.00;100366.19;5052481;28;20203;-73
2021/07/06 01:20:08;;;;;;;3.23;2.70;;;;;;;15.25;100.00;100362.72;5055153;28;20231;-74
2021/07/06 01:22:36;;;;;;;4.33;2.70;;;;;;;15.30;100.00;100367.75;5049981;28;20206;-73
2021/07/06 01:25:05;;;;;;;3.07;2.63;;;;;;;15.27;100.00;100368.75;5046452;28;20227;-73
2021/07/06 01:27:32;;;;;;;8.53;2.90;;;;;;;15.22;100.00;100362.03;5053411;28;20202;-73
2021/07/06 01:29:59;;;;;;;3.83;2.93;;;;;;;15.15;100.00;100367.56;5048918;28;20197;-73
2021/07/06 01:32:25;;;;;;;5.23;2.60;;;;;;;15.24;100.00;100366.28;5050902;28;20206;-72
2021/07/06 01:34:52;;;;;;;4.63;3.10;;;;;;;15.16;100.00;100352.66;5048789;28;20621;-74
2021/07/06 01:37:20;;;;;;;5.77;3.00;;;;;;;15.20;100.00;100358.63;5053948;28;20203;-73
2021/07/06 01:39:49;;;;;;;3.40;2.90;;;;;;;15.19;100.00;100351.69;5052526;28;20226;-74
2021/07/06 01:42:17;;;;;;;3.37;2.73;;;;;;;15.27;100.00;100354.78;5054451;28;20208;-74
2021/07/06 01:44:44;;;;;;;6.33;2.93;;;;;;;15.23;100.00;100351.47;5051924;28;20226;-74
2021/07/06 01:47:10;;;;;;;3.97;3.20;;;;;;;15.26;100.00;100350.44;5053672;28;20203;-74
2021/07/06 01:49:37;;;;;;;3.27;2.93;;;;;;;15.20;100.00;100341.09;5052840;28;20195;-74
2021/07/06 01:52:04;;;;;;;3.77;3.00;;;;;;;15.24;100.00;100340.00;5055443;28;20592;-72
2021/07/06 01:54:30;;;;;;;3.37;3.00;;;;;;;15.24;100.00;100341.78;5050331;28;20224;-73
2021/07/06 01:56:58;;;;;;;3.27;2.73;;;;;;;15.16;100.00;100342.16;5054916;28;20211;-74
2021/07/06 01:59:24;;;;;;;3.67;3.37;;;;;;;15.15;100.00;100340.47;5050349;28;20223;-72
2021/07/06 02:01:50;;;;;;;3.63;3.20;;;;;;;15.17;100.00;100343.03;5051460;28;20207;-72
2021/07/06 02:04:17;;;;;;;3.47;2.77;;;;;;;15.14;100.00;100341.38;5050961;28;20583;-74
2021/07/06 02:06:44;;;;;;;3.47;3.10;;;;;;;15.20;100.00;100346.34;5050939;28;20208;-74
2021/07/06 02:09:10;;;;;;;3.27;2.97;;;;;;;15.17;100.00;100341.25;5048947;28;20202;-71
2021/07/06 02:11:37;;;;;;;4.23;2.90;;;;;;;15.12;100.00;100341.47;5048231;28;20202;-72
2021/07/06 02:14:05;;;;;;;4.10;2.97;;;;;;;15.15;100.00;100348.34;5053339;28;20294;-72
2021/07/06 02:16:31;;;;;;;3.33;3.03;;;;;;;15.12;100.00;100345.88;5047040;28;20203;-74
2021/07/06 02:18:58;;;;;;;5.60;3.27;;;;;;;15.18;100.00;100350.84;5049027;28;20618;-74
2021/07/06 02:21:24;;;;;;;4.27;2.83;;;;;;;15.10;100.00;100347.72;5050508;28;20210;-74
2021/07/06 02:23:50;;;;;;;3.17;2.40;;;;;;;15.12;100.00;100359.00;5053431;28;20635;-74
2021/07/06 02:26:17;;;;;;;3.60;3.07;;;;;;;15.12;100.00;100359.84;5051967;28;20552;-71
2021/07/06 02:28:43;;;;;;;3.43;2.87;;;;;;;15.13;100.00;100356.31;5052233;28;20202;-73
2021/07/06 02:31:11;;;;;;;8.30;3.23;;;;;;;15.05;100.00;100358.44;5049968;28;20708;-72
2021/07/06 02:33:38;;;;;;;6.30;2.77;;;;;;;15.09;100.00;100346.00;5051823;28;20609;-74
2021/07/06 02:36:06;;;;;;;3.07;2.80;;;;;;;15.15;100.00;100343.09;5049284;28;20202;-73
2021/07/06 02:38:33;;;;;;;7.33;2.70;;;;;;;15.08;100.00;100341.72;5048720;28;20196;-73
2021/07/06 02:41:00;;;;;;;6.33;2.87;;;;;;;15.00;100.00;100346.47;5052266;28;20215;-73
2021/07/06 02:43:26;;;;;;;3.13;2.80;;;;;;;14.92;100.00;100349.47;5050508;28;20849;-74
2021/07/06 02:45:53;;;;;;;3.60;2.73;;;;;;;14.90;100.00;100346.94;5051144;28;20200;-72
2021/07/06 02:48:20;;;;;;;2.80;2.60;;;;;;;14.95;100.00;100349.31;5052283;28;20211;-74
2021/07/06 02:50:47;;;;;;;3.30;3.00;;;;;;;14.95;100.00;100347.56;5054799;28;20201;-74
2021/07/06 02:53:13;;;;;;;5.93;3.10;;;;;;;14.91;100.00;100350.41;5047954;28;20221;-74
2021/07/06 02:55:41;;;;;;;3.30;2.80;;;;;;;14.84;100.00;100351.63;5047796;28;20203;-73
2021/07/06 02:58:07;;;;;;;4.23;3.00;;;;;;;14.88;100.00;100351.41;5050903;28;20203;-73
2021/07/06 03:00:34;;;;;;;3.73;2.93;;;;;;;15.01;100.00;100356.06;5050006;28;20230;-73
2021/07/06 03:03:03;;;;;;;4.60;2.80;;;;;;;14.95;100.00;100352.81;5050581;28;20309;-74
2021/07/06 03:05:32;;;;;;;4.47;3.40;;;;;;;14.89;100.00;100352.25;5048405;28;20283;-73
2021/07/06 03:08:00;;;;;;;3.60;3.03;;;;;;;14.92;100.00;100354.72;5050875;28;20202;-71
2021/07/06 03:10:28;;;;;;;3.07;2.77;;;;;;;14.86;100.00;100347.16;5050006;28;20200;-73
2021/07/06 03:12:56;;;;;;;3.23;2.70;;;;;;;14.86;100.00;100352.41;5050318;28;20225;-72
2021/07/06 03:15:24;;;;;;;3.27;2.90;;;;;;;14.82;100.00;100348.22;5046927;28;20204;-74
2021/07/06 03:17:51;;;;;;;3.73;3.00;;;;;;;14.90;100.00;100348.72;5051892;28;20203;-72
2021/07/06 03:20:20;;;;;;;3.60;2.97;;;;;;;14.83;100.00;100348.16;5051007;28;20229;-72
2021/07/06 03:22:48;;;;;;;3.27;2.97;;;;;;;14.86;100.00;100350.63;5058138;28;20205;-74
2021/07/06 03:25:16;;;;;;;3.30;3.00;;;;;;;14.92;100.00;100355.56;5047117;28;20224;-74
2021/07/06 03:27:43;;;;;;;3.23;2.93;;;;;;;14.82;100.00;100354.31;5052385;28;20209;-70
2021/07/06 03:30:13;;;;;;;3.87;2.93;;;;;;;14.82;100.00;100349.06;5049490;28;20210;-73
2021/07/06 03:32:40;;;;;;;3.27;2.97;;;;;;;14.83;100.00;100355.16;5049736;28;20210;-72
2021/07/06 03:35:07;;;;;;;5.77;2.93;;;;;;;14.88;100.00;100354.03;5049583;28;20231;-74
2021/07/06 03:37:34;;;;;;;3.40;2.80;;;;;;;14.98;100.00;100351.78;5050804;28;20204;-74
2021/07/06 03:40:03;;;;;;;3.80;3.07;;;;;;;14.97;100.00;100350.13;5050531;28;20226;-74
2021/07/06 03:42:30;;;;;;;4.33;2.90;;;;;;;14.89;100.00;100352.25;5048149;28;20199;-72
2021/07/06 03:44:56;;;;;;;3.73;3.17;;;;;;;14.93;100.00;100352.03;5052657;28;20671;-73
2021/07/06 03:47:22;;;;;;;3.30;3.00;;;;;;;14.99;100.00;100347.41;5053345;28;20213;-72
2021/07/06 03:49:49;;;;;;;4.20;3.47;;;;;;;14.99;100.00;100344.78;5055520;28;20198;-74
2021/07/06 03:52:15;;;;;;;4.30;3.40;;;;;;;14.98;100.00;100345.69;5055435;28;20312;-73
2021/07/06 03:54:42;;;;;;;5.13;3.20;;;;;;;15.03;100.00;100347.16;5054375;28;20221;-74
2021/07/06 03:57:09;;;;;;;4.83;3.17;;;;;;;15.08;100.00;100339.09;5051692;28;20212;-74
2021/07/06 03:59:36;;;;;;;5.00;3.87;;;;;;;15.12;100.00;100349.34;5053935;28;20674;-74
2021/07/06 04:02:02;;;;;;;5.53;3.57;;;;;;;15.14;100.00;100349.25;5049954;28;20723;-72
2021/07/06 04:04:28;;;;;;;3.53;3.10;;;;;;;15.17;100.00;100354.38;5056008;28;20223;-73
2021/07/06 04:06:55;;;;;;;3.97;3.67;;;;;;;15.21;100.00;100350.66;5052709;28;20203;-74
2021/07/06 04:09:21;;;;;;;3.50;3.10;;;;;;;15.28;100.00;100356.47;5056437;28;20309;-74
2021/07/06 04:11:47;;;;;;;4.87;3.37;;;;;;;15.35;100.00;100355.22;5054446;28;20240;-72
2021/07/06 04:14:15;;;;;;;3.97;3.57;;;;;;;15.44;100.00;100356.53;5052794;28;20235;-74
2021/07/06 04:16:42;;;;;;;4.37;3.30;;;;;;;15.58;100.00;100356.69;5054298;28;20593;-74
2021/07/06 04:19:08;;;;;;;6.33;3.30;;;;;;;15.71;100.00;100349.88;5051512;28;20218;-74
2021/07/06 04:21:35;;;;;;;4.63;3.33;;;;;;;15.85;100.00;100353.59;5054541;28;20207;-74
2021/07/06 04:24:02;;;;;;;3.63;3.23;;;;;;;16.02;100.00;100357.97;5050408;28;20226;-72
2021/07/06 04:26:29;;;;;;;4.93;3.17;;;;;;;16.18;100.00;100358.88;5052695;28;20446;-74
2021/07/06 04:28:55;;;;;;;4.77;3.30;;;;;;;16.32;100.00;100351.97;5049966;28;20208;-73
2021/07/06 04:31:23;;;;;;;3.73;3.20;;;;;;;16.43;100.00;100360.16;5052009;28;20197;-74
2021/07/06 04:33:49;;;;;;;3.60;3.10;;;;;;;16.61;100.00;100363.56;5050951;28;20219;-73
2021/07/06 04:36:16;;;;;;;4.37;3.00;;;;;;;16.75;100.00;100363.63;5051557;28;20206;-74
2021/07/06 04:38:42;;;;;;;4.63;3.20;;;;;;;16.90;100.00;100361.09;5050304;28;20209;-74
2021/07/06 04:41:08;;;;;;;4.57;2.90;;;;;;;17.03;100.00;100359.47;5053172;28;20313;-74
2021/07/06 04:43:35;;;;;;;3.00;2.70;;;;;;;17.13;100.00;100363.28;5048396;28;20222;-74
2021/07/06 04:46:01;;;;;;;4.10;2.60;;;;;;;17.27;100.00;100373.00;5049744;28;20699;-74
2021/07/06 04:48:29;;;;;;;4.63;2.20;;;;;;;17.42;100.00;100366.84;5051434;28;20659;-72
2021/07/06 04:51:03;;;;;;;2.53;2.33;;;;;;;17.57;100.00;100373.00;5052756;28;20207;-74
2021/07/06 04:53:29;;;;;;;4.77;2.27;;;;;;;17.69;98.87;100375.84;5055848;28;20233;-74
2021/07/06 04:55:55;;;;;;;2.83;2.23;;;;;;;17.82;98.79;100378.56;5049939;28;20204;-74
2021/07/06 04:58:22;;;;;;;2.40;2.20;;;;;;;17.94;98.08;100386.66;5053150;28;20278;-74
2021/07/06 05:00:48;;;;;;;2.57;2.37;;;;;;;18.06;97.38;100379.75;5049358;28;20768;-72
2021/07/06 05:03:15;;;;;;;2.20;2.00;;;;;;;18.15;96.36;100378.34;5053827;28;20242;-71
2021/07/06 05:05:42;;;;;;;2.50;2.30;;;;;;;18.29;95.40;100380.13;5048701;28;20192;-74
2021/07/06 05:08:10;;;;;;;2.43;2.20;;;;;;;18.46;95.49;100376.44;5054869;28;20635;-73
2021/07/06 05:10:37;;;;;;;2.40;2.20;;;;;;;18.57;94.99;100373.97;5051794;28;20200;-73
2021/07/06 05:13:03;;;;;;;3.13;2.30;;;;;;;18.71;93.84;100379.22;5055335;28;20211;-74
2021/07/06 05:15:30;;;;;;;2.00;1.90;;;;;;;18.85;93.79;100374.88;5058335;28;20225;-74
2021/07/06 05:17:56;;;;;;;3.53;1.87;;;;;;;18.98;92.82;100374.91;5057610;28;20222;-74
2021/07/06 05:20:22;;;;;;;2.50;2.10;;;;;;;19.06;91.89;100376.09;5050002;28;20244;-74
2021/07/06 05:22:50;;;;;;;2.20;2.00;;;;;;;19.13;91.53;100373.91;5056101;28;20226;-72
2021/07/06 05:25:17;;;;;;;2.17;1.73;;;;;;;19.25;90.40;100382.84;5053310;28;20237;-74
2021/07/06 05:27:44;;;;;;;4.77;2.23;;;;;;;19.36;89.61;100392.69;5056785;28;20227;-73
2021/07/06 05:30:12;;;;;;;3.50;1.90;;;;;;;19.45;90.39;100389.41;5058833;28;20294;-73
2021/07/06 05:32:39;;;;;;;3.37;1.80;;;;;;;19.48;88.83;100392.69;5055682;28;20525;-72
2021/07/06 05:35:08;;;;;;;2.10;1.80;;;;;;;19.60;89.10;100388.41;5059820;28;20263;-74
2021/07/06 05:37:34;;;;;;;2.93;1.87;;;;;;;19.66;87.77;100387.13;5055910;28;20206;-74
2021/07/06 05:40:02;;;;;;;1.80;1.70;;;;;;;19.68;86.59;100391.38;5056590;28;20274;-72
2021/07/06 05:42:29;;;;;;;4.83;2.03;;;;;;;19.79;86.50;100389.84;5055780;28;20235;-73
2021/07/06 05:44:55;;;;;;;1.73;1.63;;;;;;;19.89;86.09;100390.88;5061712;28;20226;-72
2021/07/06 05:47:22;;;;;;;2.67;1.63;;;;;;;20.03;85.91;100382.84;5059502;28;20218;-74
2021/07/06 05:49:48;;;;;;;1.77;1.67;;;;;;;20.13;84.43;100388.34;5059006;28;20218;-72
2021/07/06 05:52:14;;;;;;;3.03;1.70;;;;;;;20.27;85.64;100386.53;5064878;28;20199;-71
2021/07/06 05:54:41;;;;;;;4.07;1.73;;;;;;;20.38;85.09;100376.84;5054000;28;20230;-72
2021/07/06 05:57:08;;;;;;;4.50;1.80;;;;;;;20.42;83.44;100380.13;5056558;28;20211;-74
2021/07/06 05:59:35;;;;;;;1.93;1.60;;;;;;;20.52;83.63;100381.16;5058644;28;20207;-72
2021/07/06 06:02:01;;;;;;;2.07;1.67;;;;;;;20.59;83.12;100385.06;5058047;28;20219;-72
2021/07/06 06:04:27;;;;;;;3.00;1.70;;;;;;;20.65;82.15;100390.91;5056291;28;20599;-72
2021/07/06 06:06:54;;;;;;;2.90;1.63;;;;;;;20.70;81.85;100386.13;5057995;28;20211;-72
2021/07/06 06:09:20;;;;;;;1.90;1.70;;;;;;;20.81;81.88;100383.56;5058817;28;20213;-72
2021/07/06 06:11:47;;;;;;;3.30;1.63;;;;;;;20.91;80.43;100379.25;5060878;28;20195;-71
2021/07/06 06:14:15;;;;;;;2.43;1.67;;;;;;;21.02;80.92;100386.44;5055881;28;20222;-74
2021/07/06 06:16:42;;;;;;;1.30;1.20;;;;;;;21.02;79.82;100385.56;5059125;28;20199;-74
2021/07/06 06:19:08;;;;;;;1.57;1.43;;;;;;;21.14;79.23;100384.66;5054533;28;20233;-74
2021/07/06 06:21:34;;;;;;;5.40;1.60;;;;;;;21.28;79.30;100387.16;5055144;28;20222;-74
2021/07/06 06:24:01;;;;;;;2.57;1.40;;;;;;;21.32;80.00;100390.41;5055237;28;20419;-73
2021/07/06 06:26:27;;;;;;;1.77;1.40;;;;;;;21.38;79.99;100387.28;5055878;28;20192;-71
2021/07/06 06:28:54;;;;;;;1.73;1.50;;;;;;;21.52;79.20;100383.63;5057221;28;20192;-74
2021/07/06 06:31:21;;;;;;;1.50;1.40;;;;;;;21.60;77.48;100383.91;5056552;28;20204;-71
2021/07/06 06:33:49;;;;;;;1.90;1.50;;;;;;;21.73;77.00;100383.81;5057224;28;20223;-73
2021/07/06 06:36:15;;;;;;;2.57;1.37;;;;;;;21.86;76.06;100392.53;5056876;28;20207;-74
2021/07/06 06:38:42;;;;;;;2.93;1.50;;;;;;;21.92;75.91;100396.50;5056202;28;20202;-74
2021/07/06 06:41:08;;;;;;;1.30;1.20;;;;;;;22.00;76.71;100395.91;5054094;28;20231;-72
2021/07/06 06:43:35;;;;;;;2.57;1.17;;;;;;;22.04;75.16;100394.69;5052109;28;20806;-71
2021/07/06 06:46:01;;;;;;;1.00;1.00;;;;;;;22.15;75.68;100392.03;5053506;28;20303;-73
2021/07/06 06:48:29;;;;;;;1.30;1.03;;;;;;;22.29;73.32;100388.34;5058341;28;20226;-74
2021/07/06 06:50:55;;;;;;;2.03;1.30;;;;;;;22.33;73.47;100383.63;5055383;28;20207;-74
2021/07/06 06:53:22;;;;;;;1.17;0.97;;;;;;;22.35;71.90;100381.69;5061641;28;20350;-75
2021/07/06 06:55:48;;;;;;;2.13;1.00;;;;;;;22.48;71.56;100379.75;5052874;28;20250;-72
2021/07/06 06:58:14;;;;;;;1.30;1.00;;;;;;;22.52;72.69;100370.56;5057194;28;20209;-72
2021/07/06 07:00:41;;;;;;;1.53;1.10;;;;;;;22.59;72.30;100366.44;5057378;28;20492;-74
2021/07/06 07:03:07;;;;;;;2.37;1.00;;;;;;;22.65;72.07;100370.41;5053685;28;20213;-74
2021/07/06 07:05:35;;;;;;;0.90;0.90;;;;;;;22.72;71.07;100363.63;5051993;28;20222;-72
2021/07/06 07:08:01;;;;;;;2.80;0.90;;;;;;;22.80;71.12;100371.81;5053253;28;20211;-72
2021/07/06 07:10:28;;;;;;;1.23;1.00;;;;;;;22.83;69.77;100368.94;5053198;28;20291;-73
2021/07/06 07:12:56;;;;;;;0.80;0.80;;;;;;;22.88;68.17;100379.16;5047489;28;20195;-74
2021/07/06 07:15:23;;;;;;;1.37;1.00;;;;;;;22.92;66.89;100371.78;5055717;28;20199;-74
2021/07/06 07:17:49;;;;;;;0.90;0.80;;;;;;;23.15;66.48;100373.44;5053766;28;20214;-72
2021/07/06 07:20:16;;;;;;;0.67;0.67;;;;;;;23.32;66.30;100376.50;5049459;28;20222;-74
2021/07/06 07:22:46;;;;;;;1.50;0.90;;;;;;;23.40;66.18;100372.22;5041784;28;20215;-73
2021/07/06 07:25:13;;;;;;;2.90;0.97;;;;;;;23.44;66.66;100370.13;5044822;28;20224;-74
2021/07/06 07:27:40;;;;;;;1.27;0.90;;;;;;;23.46;65.54;100370.00;5043726;28;20238;-74
2021/07/06 07:30:08;;;;;;;1.43;0.80;;;;;;;23.54;64.55;100362.25;5046375;28;20264;-70
2021/07/06 07:32:34;;;;;;;1.27;0.70;;;;;;;23.64;64.44;100360.47;5042057;28;20654;-71
2021/07/06 07:35:01;;;;;;;1.83;1.00;;;;;;;23.76;63.06;100364.75;5046124;28;20234;-71
2021/07/06 07:37:27;;;;;;;1.33;0.90;;;;;;;23.82;63.51;100368.72;5039376;28;20673;-73
2021/07/06 07:39:55;;;;;;;1.10;0.88;;;;;;;23.89;66.38;100361.91;5043113;28;20313;-74
2021/07/06 07:42:22;;;;;;;1.10;0.82;;;;;;;24.02;65.07;100352.84;5046257;28;20219;-74
2021/07/06 07:44:48;;;;;;;1.27;1.17;;;;;;;24.06;64.92;100349.75;5043642;28;20234;-73
2021/07/06 07:47:15;;;;;;;2.03;1.38;;;;;;;24.14;64.13;100346.44;5047220;28;20294;-74
2021/07/06 07:49:41;;;;;;;1.60;1.15;;;;;;;24.25;64.43;100348.16;5044268;28;20204;-74
2021/07/06 07:52:08;;;;;;;3.80;1.70;;;;;;;24.34;64.38;100326.91;5045341;28;20209;-74
2021/07/06 07:54:35;;;;;;;1.17;1.08;;;;;;;24.38;62.62;100338.97;5042517;28;20222;-74
2021/07/06 07:57:04;;;;;;;3.17;1.27;;;;;;;24.47;63.25;100337.28;5044487;28;20199;-74
2021/07/06 07:59:31;;;;;;;1.30;1.15;;;;;;;24.58;62.90;100348.84;5039675;28;20212;-74
2021/07/06 08:01:58;;;;;;;1.35;1.02;;;;;;;24.61;62.10;100351.22;5046904;28;20221;-74
2021/07/06 08:04:24;;;;;;;2.15;1.10;;;;;;;24.66;63.88;100341.00;5044508;28;20231;-74
2021/07/06 08:06:51;;;;;;;1.20;1.10;;;;;;;24.75;63.76;100341.00;5046150;28;20237;-73
2021/07/06 08:09:17;;;;;;;1.10;1.00;;;;;;;24.70;63.55;100343.25;5040216;28;20590;-74
2021/07/06 08:11:43;;;;;;;1.52;1.20;;;;;;;24.87;61.54;100351.53;5048278;28;20445;-73
2021/07/06 08:14:11;;;;;;;1.92;1.30;;;;;;;24.93;62.83;100348.31;5040288;28;20223;-73
2021/07/06 08:16:37;;;;;;;2.55;1.10;;;;;;;25.00;62.21;100344.13;5032544;28;20215;-74
2021/07/06 08:19:04;;;;;;;2.35;1.10;;;;;;;25.05;60.99;100347.19;5038189;28;20207;-73
2021/07/06 08:21:30;;;;;;;1.15;1.10;;;;;;;25.15;61.12;100352.53;5036104;28;20756;-74
2021/07/06 08:24:00;;;;;;;1.15;0.90;;;;;;;25.24;60.10;100340.16;5037159;28;20224;-74
2021/07/06 08:26:27;;;;;;;1.70;0.80;;;;;;;25.31;59.31;100344.84;5036007;28;20298;-74
2021/07/06 08:28:54;;;;;;;1.40;1.10;;;;;;;25.35;61.17;100339.19;5041977;28;20203;-74
2021/07/06 08:31:21;;;;;;;1.30;1.17;;;;;;;25.27;59.96;100334.56;5040425;28;20207;-74
2021/07/06 08:33:48;;;;;;;1.33;1.15;;;;;;;25.33;58.78;100331.34;5046649;28;20227;-74
2021/07/06 08:36:14;;;;;;;2.05;0.95;;;;;;;25.30;60.04;100332.47;5043466;28;20199;-74
2021/07/06 08:38:41;;;;;;;1.17;0.90;;;;;;;25.42;60.04;100329.66;5041784;28;20859;-74
2021/07/06 08:41:07;;;;;;;1.00;0.90;;;;;;;25.51;58.06;100329.63;5041343;28;20592;-74
2021/07/06 08:43:34;;;;;;;2.42;1.05;;;;;;;25.50;59.91;100330.63;5046073;28;20241;-74
2021/07/06 08:46:01;;;;;;;0.80;0.80;;;;;;;25.45;58.43;100338.22;5043546;28;20222;-73
2021/07/06 08:48:32;;;;;;;1.10;1.00;;;;;;;25.54;60.75;100330.31;5043127;28;20210;-73
2021/07/06 08:50:59;;;;;;;2.13;0.90;;;;;;;25.56;59.15;100331.00;5040056;28;20588;-74
2021/07/06 08:53:25;;;;;;;1.13;0.73;;;;;;;25.64;57.05;100339.13;5043212;28;20234;-73
2021/07/06 08:55:52;;;;;;;1.00;0.90;;;;;;;25.74;59.23;100337.28;5042467;28;20257;-74
2021/07/06 08:58:19;;;;;;;0.80;0.70;;;;;;;25.89;57.58;100342.97;5041757;28;20218;-74
2021/07/06 09:00:46;;;;;;;0.95;0.80;;;;;;;26.07;56.16;100335.94;5042004;28;20841;-74
2021/07/06 09:03:12;;;;;;;1.10;0.90;;;;;;;26.15;57.88;100335.19;5029172;28;20219;-74
2021/07/06 09:05:40;;;;;;;1.30;0.80;;;;;;;26.17;55.71;100343.88;5040347;28;20936;-73
2021/07/06 09:08:07;;;;;;;1.13;0.70;;;;;;;26.10;57.53;100342.78;5035906;28;20540;-74
2021/07/06 09:10:35;;;;;;;1.33;0.90;;;;;;;26.34;56.16;100339.56;5044212;28;20207;-73
2021/07/06 09:13:02;;;;;;;0.93;0.80;;;;;;;26.44;55.46;100331.53;5038743;28;20592;-74
2021/07/06 09:15:30;;;;;;;0.75;0.70;;;;;;;26.55;55.51;100328.63;5039827;28;20206;-74
2021/07/06 09:18:09;;;;;;;2.08;0.90;;;;;;;26.48;55.75;100329.38;5046905;28;20882;-75
2021/07/06 09:20:36;;;;;;;0.88;0.70;;;;;;;26.42;57.25;100322.81;5047399;28;20210;-75
2021/07/06 09:26:07;;;;;;;0.70;0.70;;;;;;;26.53;56.23;100330.59;5107622;27;20618;-71
2021/07/06 09:28:35;;;;;;;2.38;0.88;;;;;;;26.52;55.07;100328.91;5089693;28;20229;-70
2021/07/06 09:31:18;;;;;;;2.35;0.70;;;;;;;26.64;54.56;100329.56;5088432;28;20205;-72
2021/07/06 09:33:50;;;;;;;1.33;0.80;;;;;;;26.63;55.03;100325.22;5089431;28;20870;-73
2021/07/06 09:36:27;;;;;;;0.77;0.70;;;;;;;26.84;54.21;100327.59;5088725;28;20262;-72
2021/07/06 09:39:01;;;;;;;1.88;0.50;;;;;;;26.79;55.00;100329.91;5083900;28;20236;-72
2021/07/06 09:41:29;;;;;;;1.38;0.60;;;;;;;26.84;54.76;100324.91;5090858;28;20205;-70
2021/07/06 09:43:55;;;;;;;0.50;0.50;;;;;;;26.82;54.75;100317.06;5087786;28;20226;-72
2021/07/06 09:46:25;;;;;;;0.60;0.50;;;;;;;26.99;55.06;100312.69;5090228;28;20297;-72
2021/07/06 09:48:59;;;;;;;2.42;0.60;;;;;;;26.96;53.63;100309.47;5088674;28;20194;-70
2021/07/06 09:51:26;;;;;;;0.70;0.70;;;;;;;27.00;53.36;100317.06;5088153;28;20209;-72
2021/07/06 09:53:53;;;;;;;0.40;0.40;;;;;;;26.97;50.66;100317.34;5085375;28;20287;-72
2021/07/06 09:56:22;;;;;;;0.60;0.60;;;;;;;27.08;52.02;100320.78;5088550;28;20207;-71
2021/07/06 09:58:55;;;;;;;0.60;0.60;;;;;;;26.95;53.08;100315.84;5087627;28;20190;-70
2021/07/06 10:01:33;;;;;;;0.60;0.60;;;;;;;27.04;52.48;100309.56;5086385;28;20236;-71
2021/07/06 10:04:15;;;;;;;0.50;0.50;;;;;;;27.23;51.68;100316.56;5084621;28;20336;-71
2021/07/06 10:07:33;;;;;;;0.50;0.45;;;;;;;27.35;49.64;100298.44;5086551;28;20202;-71
2021/07/06 10:10:12;;;;;;;2.58;0.70;;;;;;;27.47;50.13;100289.13;5084629;28;20206;-72
2021/07/06 10:12:39;;;;;;;0.40;0.40;;;;;;;27.37;49.19;100299.97;5075596;28;20206;-71
2021/07/06 10:15:10;;;;;;;0.60;0.60;;;;;;;27.54;49.75;100290.19;5079448;28;20296;-73
2021/07/06 10:17:38;;;;;;;0.68;0.57;;;;;;;27.65;49.02;100286.41;5078588;28;20212;-71
2021/07/06 10:20:07;;;;;;;0.70;0.70;;;;;;;27.53;50.55;100282.34;5075342;28;20941;-71
2021/07/06 10:22:33;;;;;;;0.70;0.70;;;;;;;27.50;49.71;100280.78;5078088;28;20207;-71
2021/07/06 10:25:02;;;;;;;0.55;0.55;;;;;;;27.53;50.45;100280.50;5077392;28;20223;-72
2021/07/06 10:27:32;;;;;;;1.67;0.90;;;;;;;27.71;51.02;100274.22;5080507;28;20683;-72
2021/07/06 10:30:15;;;;;;;0.70;0.68;;;;;;;27.89;48.09;100269.59;5077215;28;20198;-71
2021/07/06 10:32:43;;;;;;;1.15;0.70;;;;;;;27.96;49.67;100269.84;5079691;28;20201;-73
2021/07/06 10:35:12;;;;;;;0.40;0.40;;;;;;;27.91;49.48;100278.34;5072898;28;20210;-71
2021/07/06 10:37:40;;;;;;;0.95;0.57;;;;;;;27.86;49.96;100272.63;5061839;28;20221;-72
2021/07/06 10:40:14;;;;;;;0.70;0.70;;;;;;;27.93;50.16;100265.66;5066363;28;20866;-72
2021/07/06 10:42:41;;;;;;;3.33;0.70;;;;;;;27.91;50.84;100258.75;5064393;28;20268;-71
2021/07/06 10:45:17;;;;;;;1.10;0.70;;;;;;;27.96;49.89;100259.13;5062044;28;20828;-71
2021/07/06 10:47:46;;;;;;;0.57;0.57;;;;;;;28.11;47.91;100273.56;5064762;28;20210;-71
2021/07/06 10:50:52;;;;;;;0.50;0.50;;;;;;;28.30;46.16;100268.91;5066215;28;20199;-73
2021/07/06 10:53:21;;;;;;;0.65;0.65;;;;;;;28.27;48.12;100269.25;5064337;28;20300;-73
2021/07/06 10:56:01;;;;;;;2.15;0.70;;;;;;;28.22;47.67;100272.44;5065702;28;20213;-74
2021/07/06 10:58:49;;;;;;;0.60;0.60;;;;;;;28.32;48.83;100274.97;5063952;28;20210;-73
2021/07/06 11:02:00;;;;;;;0.70;0.65;;;;;;;28.38;48.61;100273.47;5056077;28;20211;-72
2021/07/06 11:05:03;;;;;;;2.40;0.80;;;;;;;28.36;49.54;100267.44;5065454;28;20279;-73
2021/07/06 11:07:51;;;;;;;1.63;0.65;;;;;;;28.35;48.50;100269.25;5065579;28;20260;-73
2021/07/06 11:10:20;;;;;;;0.55;0.55;;;;;;;28.45;47.50;100286.03;5054572;28;20776;-71
2021/07/06 11:12:48;;;;;;;0.60;0.60;;;;;;;28.75;46.87;100288.31;5064944;28;20248;-72
2021/07/06 11:15:19;;;;;;;0.75;0.70;;;;;;;28.69;50.00;100274.56;5065311;28;20234;-72
2021/07/06 11:17:48;;;;;;;0.57;0.57;;;;;;;28.55;49.68;100279.72;5066498;28;20217;-72
2021/07/06 11:20:17;;;;;;;0.60;0.60;;;;;;;28.41;48.48;100265.09;5060078;28;20211;-72
2021/07/06 11:22:44;;;;;;;1.15;0.73;;;;;;;28.63;46.56;100263.66;5067769;28;20403;-72
2021/07/06 11:25:19;;;;;;;0.60;0.60;;;;;;;28.74;48.32;100252.56;5062090;28;20232;-72
2021/07/06 11:27:59;;;;;;;1.00;0.60;;;;;;;28.79;46.36;100244.88;5066578;28;20229;-72
2021/07/06 11:30:29;;;;;;;0.60;0.50;;;;;;;28.76;46.43;100245.22;5066086;28;20289;-72